Time,TemperatureF,DewpointF,PressureIn,WindDirection,WindDirectionDegrees,WindSpeedMPH,WindSpeedGustMPH,Humidity,HourlyPrecipIn,Conditions,Clouds,dailyrainin,SoftwareType,DateUTC
2013-07-20 00:10:00,74.9,73.0,29.94,NNW,333,0.0,0.0,94,0.00,,,0.00,weatherlink.com 1.10,2013-07-20 05:10:00,
2013-07-20 00:25:00,74.9,73.0,29.94,NNW,333,0.0,0.0,95,0.00,,,0.00,weatherlink.com 1.10,2013-07-20 05:25:00,
2013-07-20 00:41:00,74.4,73.0,29.94,NNW,333,0.0,1.0,96,0.00,,,0.00,weatherlink.com 1.10,2013-07-20 05:41:00,
2013-07-20 00:56:00,74.4,73.0,29.94,NNW,333,0.0,1.0,96,0.00,,,0.00,weatherlink.com 1.10,2013-07-20 05:56:00,
2013-07-20 01:11:00,74.3,73.0,29.94,NNW,333,1.0,1.0,96,0.00,,,0.00,weatherlink.com 1.10,2013-07-20 06:11:00,
2013-07-20 01:26:00,74.1,73.0,29.95,NNW,333,0.0,0.0,96,0.00,,,0.00,weatherlink.com 1.10,2013-07-20 06:26:00,
2013-07-20 01:41:00,74.0,73.0,29.94,NNW,333,0.0,0.0,96,0.00,,,0.00,weatherlink.com 1.10,2013-07-20 06:41:00,
2013-07-20 01:56:00,74.1,73.0,29.95,NNW,333,0.0,0.0,96,0.00,,,0.00,weatherlink.com 1.10,2013-07-20 06:56:00,
2013-07-20 02:11:00,74.2,73.0,29.95,NNW,333,0.0,0.0,96,0.00,,,0.00,weatherlink.com 1.10,2013-07-20 07:11:00,
2013-07-20 02:26:00,74.1,73.0,29.95,NNW,333,0.0,0.0,97,0.00,,,0.00,weatherlink.com 1.10,2013-07-20 07:26:00,
2013-07-20 02:41:00,74.1,73.0,29.95,NNW,333,0.0,0.0,97,0.00,,,0.00,weatherlink.com 1.10,2013-07-20 07:41:00,
2013-07-20 02:56:00,73.9,73.0,29.95,NNW,333,0.0,0.0,97,0.00,,,0.00,weatherlink.com 1.10,2013-07-20 07:56:00,
2013-07-20 03:11:00,73.9,73.0,29.95,NNW,333,0.0,1.0,97,0.00,,,0.00,weatherlink.com 1.10,2013-07-20 08:11:00,
2013-07-20 03:26:00,73.7,73.0,29.95,NNW,333,0.0,0.0,97,0.00,,,0.00,weatherlink.com 1.10,2013-07-20 08:26:00,
2013-07-20 03:41:00,73.6,73.0,29.95,NNW,333,0.0,0.0,97,0.00,,,0.00,weatherlink.com 1.10,2013-07-20 08:41:00,
2013-07-20 03:56:00,73.7,73.0,29.95,NNW,333,0.0,0.0,97,0.00,,,0.00,weatherlink.com 1.10,2013-07-20 08:56:00,
2013-07-20 04:11:00,73.6,73.0,29.95,NNW,333,0.0,1.0,97,0.00,,,0.00,weatherlink.com 1.10,2013-07-20 09:11:00,
2013-07-20 04:26:00,73.6,73.0,29.95,NNW,333,0.0,0.0,97,0.00,,,0.00,weatherlink.com 1.10,2013-07-20 09:26:00,
2013-07-20 04:41:00,73.7,73.0,29.94,NNW,333,0.0,0.0,97,0.00,,,0.00,weatherlink.com 1.10,2013-07-20 09:41:00,
2013-07-20 04:56:00,73.6,73.0,29.94,NNW,333,0.0,0.0,97,0.00,,,0.00,weatherlink.com 1.10,2013-07-20 09:56:00,
2013-07-20 05:11:00,73.5,73.0,29.94,NNW,333,0.0,0.0,97,0.00,,,0.00,weatherlink.com 1.10,2013-07-20 10:11:00,
2013-07-20 05:26:00,73.5,73.0,29.95,NNW,333,0.0,0.0,97,0.00,,,0.00,weatherlink.com 1.10,2013-07-20 10:26:00,
2013-07-20 05:41:00,73.4,73.0,29.95,NNW,333,0.0,0.0,97,0.00,,,0.00,weatherlink.com 1.10,2013-07-20 10:41:00,
2013-07-20 05:56:00,73.3,73.0,29.95,NNW,333,0.0,0.0,98,0.00,,,0.00,weatherlink.com 1.10,2013-07-20 10:56:00,
2013-07-20 06:11:00,73.1,73.0,29.95,NNW,333,0.0,0.0,98,0.00,,,0.00,weatherlink.com 1.10,2013-07-20 11:11:00,
2013-07-20 06:26:00,73.1,73.0,29.95,NNW,333,0.0,1.0,98,0.00,,,0.00,weatherlink.com 1.10,2013-07-20 11:26:00,
2013-07-20 06:41:00,73.1,73.0,29.95,NNW,333,0.0,0.0,98,0.00,,,0.00,weatherlink.com 1.10,2013-07-20 11:41:00,
2013-07-20 06:56:00,73.2,73.0,29.95,NNW,333,0.0,1.0,98,0.00,,,0.00,weatherlink.com 1.10,2013-07-20 11:56:00,
2013-07-20 07:11:00,73.5,73.0,29.95,NNW,333,0.0,0.0,98,0.00,,,0.00,weatherlink.com 1.10,2013-07-20 12:11:00,
2013-07-20 07:26:00,73.8,73.0,29.95,NNW,333,0.0,1.0,98,0.00,,,0.00,weatherlink.com 1.10,2013-07-20 12:26:00,
2013-07-20 07:41:00,74.5,74.0,29.95,NNW,333,0.0,0.0,98,0.00,,,0.00,weatherlink.com 1.10,2013-07-20 12:41:00,
2013-07-20 07:56:00,75.3,75.0,29.95,NNW,333,0.0,1.0,98,0.00,,,0.00,weatherlink.com 1.10,2013-07-20 12:56:00,
2013-07-20 08:11:00,76.2,75.0,29.95,NNW,333,0.0,0.0,97,0.00,,,0.00,weatherlink.com 1.10,2013-07-20 13:11:00,
2013-07-20 08:26:00,78.0,77.0,29.95,NNW,333,0.0,0.0,95,0.00,,,0.00,weatherlink.com 1.10,2013-07-20 13:26:00,
2013-07-20 08:41:00,80.0,77.0,29.95,NNW,333,0.0,0.0,89,0.00,,,0.00,weatherlink.com 1.10,2013-07-20 13:41:00,
2013-07-20 08:56:00,82.9,77.0,29.95,NNE,15,0.0,0.0,81,0.00,,,0.00,weatherlink.com 1.10,2013-07-20 13:56:00,
2013-07-20 09:11:00,83.8,77.0,29.96,East,91,0.0,2.0,80,0.00,,,0.00,weatherlink.com 1.10,2013-07-20 14:11:00,
2013-07-20 09:26:00,85.0,77.0,29.96,North,5,0.0,1.0,77,0.00,,,0.00,weatherlink.com 1.10,2013-07-20 14:26:00,
2013-07-20 09:41:00,85.4,77.0,29.96,North,11,0.0,0.0,76,0.00,,,0.00,weatherlink.com 1.10,2013-07-20 14:41:00,
2013-07-20 09:56:00,85.9,76.0,29.96,WNW,300,0.0,1.0,73,0.00,,,0.00,weatherlink.com 1.10,2013-07-20 14:56:00,
2013-07-20 10:11:00,87.3,77.0,29.96,NNE,12,0.0,1.0,71,0.00,,,0.00,weatherlink.com 1.10,2013-07-20 15:11:00,
2013-07-20 10:26:00,87.3,75.0,29.96,NE,43,0.0,4.0,67,0.00,,,0.00,weatherlink.com 1.10,2013-07-20 15:26:00,
2013-07-20 10:41:00,88.7,75.0,29.96,NW,308,0.0,0.0,64,0.00,,,0.00,weatherlink.com 1.10,2013-07-20 15:41:00,
2013-07-20 10:56:00,88.3,75.0,29.96,NE,49,0.0,4.0,65,0.00,,,0.00,weatherlink.com 1.10,2013-07-20 15:56:00,
2013-07-20 11:12:00,89.5,76.0,29.97,ENE,69,0.0,3.0,65,0.00,,,0.00,weatherlink.com 1.10,2013-07-20 16:12:00,
2013-07-20 11:27:00,88.9,76.0,29.97,East,93,0.0,1.0,66,0.00,,,0.00,weatherlink.com 1.10,2013-07-20 16:27:00,
2013-07-20 11:42:00,89.2,74.0,29.97,South,169,0.0,2.0,62,0.00,,,0.00,weatherlink.com 1.10,2013-07-20 16:42:00,
2013-07-20 11:57:00,88.5,74.0,29.97,WSW,238,0.0,4.0,62,0.00,,,0.00,weatherlink.com 1.10,2013-07-20 16:57:00,
2013-07-20 12:12:00,88.7,75.0,29.96,SW,234,0.0,6.0,64,0.00,,,0.00,weatherlink.com 1.10,2013-07-20 17:12:00,
2013-07-20 12:27:00,89.3,77.0,29.96,SSE,167,0.0,1.0,68,0.00,,,0.00,weatherlink.com 1.10,2013-07-20 17:27:00,
2013-07-20 12:42:00,89.6,75.0,29.95,ESE,123,1.0,4.0,63,0.00,,,0.00,weatherlink.com 1.10,2013-07-20 17:42:00,
2013-07-20 12:57:00,90.7,76.0,29.95,SSE,163,0.0,5.0,63,0.00,,,0.00,weatherlink.com 1.10,2013-07-20 17:57:00,
2013-07-20 13:12:00,89.3,76.0,29.94,West,268,0.0,3.0,65,0.00,,,0.00,weatherlink.com 1.10,2013-07-20 18:12:00,
2013-07-20 13:27:00,90.4,76.0,29.94,WSW,238,0.0,4.0,62,0.00,,,0.00,weatherlink.com 1.10,2013-07-20 18:27:00,
2013-07-20 13:42:00,89.9,78.0,29.94,SSE,165,0.0,2.0,68,0.00,,,0.00,weatherlink.com 1.10,2013-07-20 18:42:00,
2013-07-20 13:57:00,89.8,77.0,29.93,SE,146,0.0,5.0,65,0.00,,,0.00,weatherlink.com 1.10,2013-07-20 18:57:00,
2013-07-20 14:12:00,90.6,75.0,29.93,South,172,2.0,8.0,60,0.00,,,0.00,weatherlink.com 1.10,2013-07-20 19:12:00,
2013-07-20 14:27:00,90.7,73.0,29.93,SE,142,2.0,7.0,57,0.00,,,0.00,weatherlink.com 1.10,2013-07-20 19:27:00,
2013-07-20 14:42:00,90.2,72.0,29.92,South,179,3.0,6.0,55,0.00,,,0.00,weatherlink.com 1.10,2013-07-20 19:42:00,
2013-07-20 14:57:00,87.5,73.0,29.93,South,177,5.0,8.0,63,0.00,,,0.00,weatherlink.com 1.10,2013-07-20 19:57:00,
2013-07-20 15:12:00,86.8,75.0,29.93,South,174,1.0,10.0,67,0.00,,,0.00,weatherlink.com 1.10,2013-07-20 20:12:00,
2013-07-20 15:27:00,87.2,75.0,29.92,South,170,0.0,6.0,67,0.00,,,0.00,weatherlink.com 1.10,2013-07-20 20:27:00,
2013-07-20 15:42:00,88.0,76.0,29.91,South,172,3.0,8.0,67,0.00,,,0.00,weatherlink.com 1.10,2013-07-20 20:42:00,
2013-07-20 15:57:00,89.0,77.0,29.91,SW,228,5.0,7.0,67,0.00,,,0.00,weatherlink.com 1.10,2013-07-20 20:57:00,
2013-07-20 16:12:00,88.8,75.0,29.91,SSE,159,4.0,10.0,64,0.00,,,0.00,weatherlink.com 1.10,2013-07-20 21:12:00,
2013-07-20 16:27:00,87.9,76.0,29.91,South,174,2.0,7.0,67,0.00,,,0.00,weatherlink.com 1.10,2013-07-20 21:27:00,
2013-07-20 16:42:00,86.9,76.0,29.91,SSE,167,3.0,10.0,70,0.00,,,0.00,weatherlink.com 1.10,2013-07-20 21:42:00,
2013-07-20 16:57:00,85.7,76.0,29.91,South,182,5.0,14.0,72,0.00,,,0.00,weatherlink.com 1.10,2013-07-20 21:57:00,
2013-07-20 17:12:00,86.3,76.0,29.90,South,172,7.0,10.0,72,0.00,,,0.00,weatherlink.com 1.10,2013-07-20 22:12:00,
2013-07-20 17:27:00,85.6,76.0,29.89,South,177,1.0,7.0,73,0.00,,,0.00,weatherlink.com 1.10,2013-07-20 22:27:00,
2013-07-20 17:42:00,86.4,76.0,29.89,SSE,165,4.0,6.0,72,0.00,,,0.00,weatherlink.com 1.10,2013-07-20 22:42:00,
2013-07-20 18:12:00,87.2,75.0,29.88,SW,225,4.0,8.0,68,0.00,,,0.00,weatherlink.com 1.10,2013-07-20 23:12:00,
2013-07-20 18:27:00,86.1,76.0,29.88,WSW,239,3.0,7.0,71,0.00,,,0.00,weatherlink.com 1.10,2013-07-20 23:27:00,
2013-07-20 18:42:00,85.7,77.0,29.87,WSW,257,3.0,6.0,74,0.00,,,0.00,weatherlink.com 1.10,2013-07-20 23:42:00,
2013-07-20 18:57:00,85.2,76.0,29.88,SW,234,1.0,6.0,74,0.00,,,0.00,weatherlink.com 1.10,2013-07-20 23:57:00,
2013-07-20 19:12:00,84.6,76.0,29.87,WSW,244,1.0,4.0,75,0.00,,,0.00,weatherlink.com 1.10,2013-07-21 00:12:00,
2013-07-20 19:27:00,83.5,76.0,29.88,WSW,245,0.0,3.0,77,0.00,,,0.00,weatherlink.com 1.10,2013-07-21 00:27:00,
2013-07-20 19:42:00,83.1,76.0,29.88,WSW,245,0.0,0.0,78,0.00,,,0.00,weatherlink.com 1.10,2013-07-21 00:42:00,
2013-07-20 19:57:00,82.7,76.0,29.88,WSW,245,0.0,0.0,79,0.00,,,0.00,weatherlink.com 1.10,2013-07-21 00:57:00,
2013-07-20 20:12:00,81.9,75.0,29.89,WSW,245,0.0,0.0,80,0.00,,,0.00,weatherlink.com 1.10,2013-07-21 01:12:00,
2013-07-20 20:27:00,80.8,75.0,29.89,WSW,245,0.0,0.0,83,0.00,,,0.00,weatherlink.com 1.10,2013-07-21 01:27:00,
2013-07-20 20:42:00,79.8,75.0,29.89,WSW,245,0.0,0.0,86,0.00,,,0.00,weatherlink.com 1.10,2013-07-21 01:42:00,
2013-07-20 20:57:00,79.2,75.0,29.90,WSW,245,0.0,0.0,87,0.00,,,0.00,weatherlink.com 1.10,2013-07-21 01:57:00,
2013-07-20 21:12:00,78.7,75.0,29.91,WSW,245,0.0,0.0,88,0.00,,,0.00,weatherlink.com 1.10,2013-07-21 02:12:00,
2013-07-20 21:42:00,77.9,75.0,29.92,WSW,245,0.0,0.0,90,0.00,,,0.00,weatherlink.com 1.10,2013-07-21 02:42:00,
2013-07-20 21:57:00,77.6,75.0,29.93,WSW,245,0.0,0.0,90,0.00,,,0.00,weatherlink.com 1.10,2013-07-21 02:57:00,
2013-07-20 22:12:00,77.9,75.0,29.94,WSW,245,0.0,0.0,89,0.00,,,0.00,weatherlink.com 1.10,2013-07-21 03:12:00,
2013-07-20 23:12:00,76.7,74.0,29.95,WSW,245,0.0,0.0,91,0.00,,,0.00,weatherlink.com 1.10,2013-07-21 04:12:00,
2013-07-20 23:27:00,76.7,75.0,29.95,WSW,245,0.0,0.0,93,0.00,,,0.00,weatherlink.com 1.10,2013-07-21 04:27:00,
2013-07-20 23:42:00,77.1,75.0,29.95,WSW,245,0.0,1.0,93,0.00,,,0.00,weatherlink.com 1.10,2013-07-21 04:42:00,
2013-07-20 23:57:00,77.2,75.0,29.95,WSW,245,0.0,0.0,93,0.00,,,0.00,weatherlink.com 1.10,2013-07-21 04:57:00,